EHAM

Amsterdam Schiphol Airport

Amsterdam, The Netherlands
METAR EHAM 201655Z 26006KT 9999 FEW025 13/10 Q1030 NOSIG
Observed Flight Rules
Oct-20 @ 16:55 UTC (19 minutes ago) Visual Flight Rules
Wind Visibility Clouds
260° at 6 knots 10,000+ meters
  • Few at 2,500' AGL
Temperatures Readings
Current 13°C / 55°F
Dewpoint 10°C / 50°F
Humidity 82%
Altimeter 30.41" Hg
Pressure 1030 hPa
Elevation 9
METAR EHAM 201655Z 26006KT 9999 FEW025 13/10 Q1030 NOSIG
Observed Flight Rules
Oct-20 @ 16:55 UTC
(19 minutes ago)
VFR
Wind Visibility
260° at 6 knots 10,000+ meters
Clouds
  • Few at 2,500' AGL
Temperature Dewpoint
13°C / 55°F 10°C / 50°F
Humidity Altimeter Pressure
82% 30.41" Hg 1030 hPa